sensor_id;sensor_type;location;lat;lon;timestamp;P1;durP1;ratioP1;P2;durP2;ratioP2
13487;SDS011;6816;48.506;9.050;2023-03-08T00:00:46;5.97;;;4.33;;
13487;SDS011;6816;48.506;9.050;2023-03-08T00:03:49;5.87;;;4.33;;
13487;SDS011;6816;48.506;9.050;2023-03-08T00:06:51;6.67;;;4.27;;
13487;SDS011;6816;48.506;9.050;2023-03-08T00:09:51;6.97;;;4.40;;
13487;SDS011;6816;48.506;9.050;2023-03-08T00:12:52;5.17;;;4.20;;
13487;SDS011;6816;48.506;9.050;2023-03-08T00:15:53;4.50;;;3.83;;
13487;SDS011;6816;48.506;9.050;2023-03-08T00:18:57;5.67;;;4.33;;
13487;SDS011;6816;48.506;9.050;2023-03-08T00:21:58;6.23;;;4.40;;
13487;SDS011;6816;48.506;9.050;2023-03-08T00:24:58;5.53;;;4.07;;
13487;SDS011;6816;48.506;9.050;2023-03-08T00:27:59;7.30;;;5.10;;
13487;SDS011;6816;48.506;9.050;2023-03-08T00:31:00;5.33;;;4.13;;
13487;SDS011;6816;48.506;9.050;2023-03-08T00:34:03;6.73;;;4.20;;
13487;SDS011;6816;48.506;9.050;2023-03-08T00:37:04;6.63;;;4.30;;
13487;SDS011;6816;48.506;9.050;2023-03-08T00:40:05;6.60;;;4.23;;
13487;SDS011;6816;48.506;9.050;2023-03-08T00:43:06;6.17;;;4.00;;
13487;SDS011;6816;48.506;9.050;2023-03-08T00:46:07;6.93;;;4.73;;
13487;SDS011;6816;48.506;9.050;2023-03-08T00:49:08;6.40;;;4.00;;
13487;SDS011;6816;48.506;9.050;2023-03-08T00:52:10;6.43;;;4.90;;
13487;SDS011;6816;48.506;9.050;2023-03-08T00:55:10;6.00;;;4.30;;
13487;SDS011;6816;48.506;9.050;2023-03-08T00:58:11;8.00;;;4.83;;
13487;SDS011;6816;48.506;9.050;2023-03-08T01:01:13;5.57;;;4.13;;
13487;SDS011;6816;48.506;9.050;2023-03-08T01:04:15;6.03;;;4.37;;
13487;SDS011;6816;48.506;9.050;2023-03-08T01:07:16;6.60;;;4.40;;
13487;SDS011;6816;48.506;9.050;2023-03-08T01:10:18;6.90;;;4.50;;
13487;SDS011;6816;48.506;9.050;2023-03-08T01:13:19;5.50;;;4.50;;
13487;SDS011;6816;48.506;9.050;2023-03-08T01:16:21;5.43;;;4.27;;
13487;SDS011;6816;48.506;9.050;2023-03-08T01:19:24;6.17;;;3.97;;
13487;SDS011;6816;48.506;9.050;2023-03-08T01:22:25;6.27;;;4.07;;
13487;SDS011;6816;48.506;9.050;2023-03-08T01:25:25;6.90;;;3.90;;
13487;SDS011;6816;48.506;9.050;2023-03-08T01:28:27;6.90;;;4.77;;
13487;SDS011;6816;48.506;9.050;2023-03-08T01:31:28;7.73;;;5.27;;
13487;SDS011;6816;48.506;9.050;2023-03-08T01:34:29;7.63;;;4.10;;
13487;SDS011;6816;48.506;9.050;2023-03-08T01:37:30;6.57;;;4.60;;
13487;SDS011;6816;48.506;9.050;2023-03-08T01:40:32;5.70;;;4.20;;
13487;SDS011;6816;48.506;9.050;2023-03-08T01:43:33;6.93;;;4.27;;
13487;SDS011;6816;48.506;9.050;2023-03-08T01:46:36;8.33;;;4.57;;
13487;SDS011;6816;48.506;9.050;2023-03-08T01:49:37;5.87;;;4.40;;
13487;SDS011;6816;48.506;9.050;2023-03-08T01:52:38;6.83;;;4.17;;
13487;SDS011;6816;48.506;9.050;2023-03-08T01:55:46;7.07;;;4.77;;
13487;SDS011;6816;48.506;9.050;2023-03-08T01:58:47;5.93;;;4.30;;
13487;SDS011;6816;48.506;9.050;2023-03-08T02:01:50;6.23;;;3.97;;
13487;SDS011;6816;48.506;9.050;2023-03-08T02:04:51;6.63;;;4.10;;
13487;SDS011;6816;48.506;9.050;2023-03-08T02:07:52;5.80;;;4.23;;
13487;SDS011;6816;48.506;9.050;2023-03-08T02:10:52;6.70;;;4.37;;
13487;SDS011;6816;48.506;9.050;2023-03-08T02:13:53;5.47;;;3.87;;
13487;SDS011;6816;48.506;9.050;2023-03-08T02:16:54;6.90;;;3.90;;
13487;SDS011;6816;48.506;9.050;2023-03-08T02:20:00;6.37;;;4.30;;
13487;SDS011;6816;48.506;9.050;2023-03-08T02:23:20;6.10;;;4.00;;
13487;SDS011;6816;48.506;9.050;2023-03-08T02:26:22;5.03;;;3.77;;
13487;SDS011;6816;48.506;9.050;2023-03-08T02:29:22;5.87;;;4.30;;
13487;SDS011;6816;48.506;9.050;2023-03-08T02:32:23;6.30;;;4.00;;
13487;SDS011;6816;48.506;9.050;2023-03-08T02:35:24;6.73;;;3.90;;
13487;SDS011;6816;48.506;9.050;2023-03-08T02:38:24;6.70;;;4.20;;
13487;SDS011;6816;48.506;9.050;2023-03-08T02:41:25;5.53;;;3.83;;
13487;SDS011;6816;48.506;9.050;2023-03-08T02:44:26;5.43;;;3.70;;
13487;SDS011;6816;48.506;9.050;2023-03-08T02:47:26;6.97;;;3.60;;
13487;SDS011;6816;48.506;9.050;2023-03-08T02:50:27;6.17;;;4.47;;
13487;SDS011;6816;48.506;9.050;2023-03-08T02:53:28;5.43;;;4.10;;
13487;SDS011;6816;48.506;9.050;2023-03-08T02:56:29;5.93;;;4.33;;
13487;SDS011;6816;48.506;9.050;2023-03-08T02:59:30;6.40;;;4.20;;
13487;SDS011;6816;48.506;9.050;2023-03-08T03:02:31;6.07;;;4.27;;
13487;SDS011;6816;48.506;9.050;2023-03-08T03:05:33;5.73;;;4.17;;
13487;SDS011;6816;48.506;9.050;2023-03-08T03:08:33;6.03;;;4.20;;
13487;SDS011;6816;48.506;9.050;2023-03-08T03:11:34;8.10;;;4.43;;
13487;SDS011;6816;48.506;9.050;2023-03-08T03:14:35;6.33;;;4.27;;
13487;SDS011;6816;48.506;9.050;2023-03-08T03:17:35;6.50;;;4.87;;
13487;SDS011;6816;48.506;9.050;2023-03-08T03:20:36;6.00;;;4.33;;
13487;SDS011;6816;48.506;9.050;2023-03-08T03:23:37;8.00;;;4.33;;
13487;SDS011;6816;48.506;9.050;2023-03-08T03:26:38;6.33;;;4.47;;
13487;SDS011;6816;48.506;9.050;2023-03-08T03:29:39;6.43;;;4.83;;
13487;SDS011;6816;48.506;9.050;2023-03-08T03:32:39;5.80;;;4.37;;
13487;SDS011;6816;48.506;9.050;2023-03-08T03:35:40;6.40;;;4.07;;
13487;SDS011;6816;48.506;9.050;2023-03-08T03:38:41;5.87;;;3.87;;
13487;SDS011;6816;48.506;9.050;2023-03-08T03:41:42;6.30;;;3.80;;
13487;SDS011;6816;48.506;9.050;2023-03-08T03:44:42;8.20;;;4.37;;
13487;SDS011;6816;48.506;9.050;2023-03-08T03:47:43;5.70;;;4.40;;
13487;SDS011;6816;48.506;9.050;2023-03-08T03:50:46;5.93;;;4.30;;
13487;SDS011;6816;48.506;9.050;2023-03-08T03:54:02;5.87;;;3.73;;
13487;SDS011;6816;48.506;9.050;2023-03-08T03:57:03;5.10;;;3.93;;
13487;SDS011;6816;48.506;9.050;2023-03-08T04:00:04;7.57;;;4.33;;
13487;SDS011;6816;48.506;9.050;2023-03-08T04:03:06;5.30;;;3.93;;
13487;SDS011;6816;48.506;9.050;2023-03-08T04:06:07;7.07;;;4.50;;
13487;SDS011;6816;48.506;9.050;2023-03-08T04:09:15;8.27;;;4.90;;
13487;SDS011;6816;48.506;9.050;2023-03-08T04:12:17;6.60;;;4.40;;
13487;SDS011;6816;48.506;9.050;2023-03-08T04:15:18;7.70;;;4.83;;
13487;SDS011;6816;48.506;9.050;2023-03-08T04:18:18;8.03;;;4.80;;
13487;SDS011;6816;48.506;9.050;2023-03-08T04:21:19;8.47;;;5.00;;
13487;SDS011;6816;48.506;9.050;2023-03-08T04:24:20;7.97;;;4.80;;
13487;SDS011;6816;48.506;9.050;2023-03-08T04:27:21;6.63;;;4.40;;
13487;SDS011;6816;48.506;9.050;2023-03-08T04:30:22;7.67;;;4.97;;
13487;SDS011;6816;48.506;9.050;2023-03-08T04:33:22;6.17;;;4.83;;
13487;SDS011;6816;48.506;9.050;2023-03-08T04:36:23;6.03;;;4.33;;
13487;SDS011;6816;48.506;9.050;2023-03-08T04:39:24;6.67;;;4.63;;
13487;SDS011;6816;48.506;9.050;2023-03-08T04:42:24;6.83;;;5.27;;
13487;SDS011;6816;48.506;9.050;2023-03-08T04:45:25;7.53;;;5.10;;
13487;SDS011;6816;48.506;9.050;2023-03-08T04:48:27;6.57;;;4.73;;
13487;SDS011;6816;48.506;9.050;2023-03-08T04:51:27;7.30;;;5.03;;
13487;SDS011;6816;48.506;9.050;2023-03-08T04:54:28;6.83;;;4.90;;
13487;SDS011;6816;48.506;9.050;2023-03-08T04:57:29;6.97;;;5.20;;
13487;SDS011;6816;48.506;9.050;2023-03-08T05:00:29;6.47;;;4.73;;
13487;SDS011;6816;48.506;9.050;2023-03-08T05:03:30;7.53;;;5.10;;
13487;SDS011;6816;48.506;9.050;2023-03-08T05:06:31;8.13;;;5.27;;
13487;SDS011;6816;48.506;9.050;2023-03-08T05:09:31;6.33;;;4.87;;
13487;SDS011;6816;48.506;9.050;2023-03-08T05:12:32;8.83;;;5.70;;
13487;SDS011;6816;48.506;9.050;2023-03-08T05:15:33;7.73;;;5.27;;
13487;SDS011;6816;48.506;9.050;2023-03-08T05:18:34;6.77;;;4.67;;
13487;SDS011;6816;48.506;9.050;2023-03-08T05:21:35;9.63;;;5.57;;
13487;SDS011;6816;48.506;9.050;2023-03-08T05:24:37;6.30;;;4.47;;
13487;SDS011;6816;48.506;9.050;2023-03-08T05:27:40;6.77;;;4.87;;
13487;SDS011;6816;48.506;9.050;2023-03-08T05:30:42;7.60;;;5.13;;
13487;SDS011;6816;48.506;9.050;2023-03-08T05:33:43;8.23;;;5.53;;
13487;SDS011;6816;48.506;9.050;2023-03-08T05:36:45;8.13;;;5.27;;
13487;SDS011;6816;48.506;9.050;2023-03-08T05:39:46;8.17;;;5.30;;
13487;SDS011;6816;48.506;9.050;2023-03-08T05:42:47;8.10;;;5.10;;
13487;SDS011;6816;48.506;9.050;2023-03-08T05:45:54;7.77;;;4.80;;
13487;SDS011;6816;48.506;9.050;2023-03-08T05:48:56;8.83;;;4.63;;
13487;SDS011;6816;48.506;9.050;2023-03-08T05:51:56;8.47;;;5.90;;
13487;SDS011;6816;48.506;9.050;2023-03-08T05:54:57;8.07;;;5.60;;
13487;SDS011;6816;48.506;9.050;2023-03-08T05:57:58;7.40;;;5.43;;
13487;SDS011;6816;48.506;9.050;2023-03-08T06:00:58;8.17;;;6.17;;
13487;SDS011;6816;48.506;9.050;2023-03-08T06:03:59;9.47;;;6.30;;
13487;SDS011;6816;48.506;9.050;2023-03-08T06:06:59;8.20;;;5.73;;
13487;SDS011;6816;48.506;9.050;2023-03-08T06:10:00;9.17;;;5.97;;
13487;SDS011;6816;48.506;9.050;2023-03-08T06:13:01;8.27;;;5.80;;
13487;SDS011;6816;48.506;9.050;2023-03-08T06:16:03;9.57;;;6.60;;
13487;SDS011;6816;48.506;9.050;2023-03-08T06:19:05;10.33;;;6.87;;
13487;SDS011;6816;48.506;9.050;2023-03-08T06:22:05;14.03;;;6.63;;
13487;SDS011;6816;48.506;9.050;2023-03-08T06:25:06;11.73;;;6.70;;
13487;SDS011;6816;48.506;9.050;2023-03-08T06:28:07;8.20;;;5.90;;
13487;SDS011;6816;48.506;9.050;2023-03-08T06:31:09;11.53;;;6.70;;
13487;SDS011;6816;48.506;9.050;2023-03-08T06:34:12;10.63;;;6.77;;
13487;SDS011;6816;48.506;9.050;2023-03-08T06:37:13;9.83;;;7.00;;
13487;SDS011;6816;48.506;9.050;2023-03-08T06:40:13;11.00;;;7.30;;
13487;SDS011;6816;48.506;9.050;2023-03-08T06:43:14;10.33;;;6.57;;
13487;SDS011;6816;48.506;9.050;2023-03-08T06:46:16;9.23;;;6.17;;
13487;SDS011;6816;48.506;9.050;2023-03-08T06:49:17;9.50;;;6.37;;
13487;SDS011;6816;48.506;9.050;2023-03-08T06:52:18;8.53;;;6.03;;
13487;SDS011;6816;48.506;9.050;2023-03-08T06:55:19;8.90;;;5.90;;
13487;SDS011;6816;48.506;9.050;2023-03-08T06:58:20;8.60;;;6.07;;
13487;SDS011;6816;48.506;9.050;2023-03-08T07:01:20;10.17;;;6.60;;
13487;SDS011;6816;48.506;9.050;2023-03-08T07:04:21;8.93;;;6.47;;
13487;SDS011;6816;48.506;9.050;2023-03-08T07:07:22;8.67;;;6.53;;
13487;SDS011;6816;48.506;9.050;2023-03-08T07:10:22;10.77;;;6.97;;
13487;SDS011;6816;48.506;9.050;2023-03-08T07:13:23;8.93;;;6.30;;
13487;SDS011;6816;48.506;9.050;2023-03-08T07:16:24;8.83;;;6.40;;
13487;SDS011;6816;48.506;9.050;2023-03-08T07:19:24;8.50;;;6.57;;
13487;SDS011;6816;48.506;9.050;2023-03-08T07:22:25;10.77;;;6.63;;
13487;SDS011;6816;48.506;9.050;2023-03-08T07:25:26;9.77;;;6.97;;
13487;SDS011;6816;48.506;9.050;2023-03-08T07:28:27;8.37;;;6.33;;
13487;SDS011;6816;48.506;9.050;2023-03-08T07:31:28;10.60;;;6.93;;
13487;SDS011;6816;48.506;9.050;2023-03-08T07:34:29;8.90;;;6.57;;
13487;SDS011;6816;48.506;9.050;2023-03-08T07:37:30;10.43;;;6.77;;
13487;SDS011;6816;48.506;9.050;2023-03-08T07:40:31;8.70;;;7.10;;
13487;SDS011;6816;48.506;9.050;2023-03-08T07:43:31;9.00;;;7.37;;
13487;SDS011;6816;48.506;9.050;2023-03-08T07:46:32;9.40;;;7.30;;
13487;SDS011;6816;48.506;9.050;2023-03-08T07:49:33;11.17;;;8.07;;
13487;SDS011;6816;48.506;9.050;2023-03-08T07:52:34;10.97;;;8.23;;
13487;SDS011;6816;48.506;9.050;2023-03-08T07:55:35;11.57;;;7.43;;
13487;SDS011;6816;48.506;9.050;2023-03-08T07:58:37;9.83;;;7.57;;
13487;SDS011;6816;48.506;9.050;2023-03-08T08:01:38;11.63;;;8.60;;
13487;SDS011;6816;48.506;9.050;2023-03-08T08:04:39;11.63;;;8.03;;
13487;SDS011;6816;48.506;9.050;2023-03-08T08:07:40;10.97;;;8.07;;
13487;SDS011;6816;48.506;9.050;2023-03-08T08:10:41;10.80;;;7.63;;
13487;SDS011;6816;48.506;9.050;2023-03-08T08:13:43;12.27;;;8.40;;
13487;SDS011;6816;48.506;9.050;2023-03-08T08:16:45;10.93;;;7.80;;
13487;SDS011;6816;48.506;9.050;2023-03-08T08:19:46;10.47;;;7.90;;
13487;SDS011;6816;48.506;9.050;2023-03-08T08:22:47;10.07;;;7.73;;
13487;SDS011;6816;48.506;9.050;2023-03-08T08:25:51;9.80;;;7.77;;
13487;SDS011;6816;48.506;9.050;2023-03-08T08:28:52;9.83;;;7.57;;
13487;SDS011;6816;48.506;9.050;2023-03-08T08:31:53;11.07;;;8.57;;
13487;SDS011;6816;48.506;9.050;2023-03-08T08:34:55;14.23;;;8.83;;
13487;SDS011;6816;48.506;9.050;2023-03-08T08:37:56;11.43;;;8.60;;
13487;SDS011;6816;48.506;9.050;2023-03-08T08:41:00;11.27;;;8.27;;
13487;SDS011;6816;48.506;9.050;2023-03-08T08:44:02;11.47;;;8.13;;
13487;SDS011;6816;48.506;9.050;2023-03-08T08:47:03;16.27;;;10.90;;
13487;SDS011;6816;48.506;9.050;2023-03-08T08:50:04;13.10;;;9.57;;
13487;SDS011;6816;48.506;9.050;2023-03-08T08:53:04;12.63;;;9.37;;
13487;SDS011;6816;48.506;9.050;2023-03-08T08:56:13;11.53;;;8.80;;
13487;SDS011;6816;48.506;9.050;2023-03-08T08:59:14;12.70;;;8.33;;
13487;SDS011;6816;48.506;9.050;2023-03-08T09:02:15;13.47;;;8.23;;
13487;SDS011;6816;48.506;9.050;2023-03-08T09:05:15;9.80;;;7.60;;
13487;SDS011;6816;48.506;9.050;2023-03-08T09:08:16;11.20;;;7.90;;
13487;SDS011;6816;48.506;9.050;2023-03-08T09:11:17;10.90;;;7.37;;
13487;SDS011;6816;48.506;9.050;2023-03-08T09:14:18;9.80;;;7.77;;
13487;SDS011;6816;48.506;9.050;2023-03-08T09:17:18;10.17;;;7.20;;
13487;SDS011;6816;48.506;9.050;2023-03-08T09:20:19;9.20;;;6.83;;
13487;SDS011;6816;48.506;9.050;2023-03-08T09:23:20;8.67;;;7.00;;
13487;SDS011;6816;48.506;9.050;2023-03-08T09:26:21;10.13;;;7.27;;
13487;SDS011;6816;48.506;9.050;2023-03-08T09:29:21;9.50;;;6.67;;
13487;SDS011;6816;48.506;9.050;2023-03-08T09:32:22;10.73;;;7.63;;
13487;SDS011;6816;48.506;9.050;2023-03-08T09:35:23;9.33;;;7.20;;
13487;SDS011;6816;48.506;9.050;2023-03-08T09:38:24;10.33;;;7.50;;
13487;SDS011;6816;48.506;9.050;2023-03-08T09:44:50;8.87;;;6.00;;
13487;SDS011;6816;48.506;9.050;2023-03-08T09:51:13;5.57;;;4.07;;
13487;SDS011;6816;48.506;9.050;2023-03-08T09:54:19;5.53;;;3.93;;
13487;SDS011;6816;48.506;9.050;2023-03-08T09:57:23;3.90;;;3.43;;
13487;SDS011;6816;48.506;9.050;2023-03-08T10:00:29;3.17;;;2.60;;
13487;SDS011;6816;48.506;9.050;2023-03-08T10:03:39;3.10;;;2.43;;
13487;SDS011;6816;48.506;9.050;2023-03-08T10:16:39;2.73;;;2.20;;
13487;SDS011;6816;48.506;9.050;2023-03-08T10:26:01;2.93;;;2.30;;
13487;SDS011;6816;48.506;9.050;2023-03-08T10:29:06;3.50;;;2.23;;
13487;SDS011;6816;48.506;9.050;2023-03-08T10:32:09;4.40;;;2.07;;
13487;SDS011;6816;48.506;9.050;2023-03-08T10:35:13;2.37;;;1.90;;
13487;SDS011;6816;48.506;9.050;2023-03-08T10:38:14;2.63;;;1.80;;
13487;SDS011;6816;48.506;9.050;2023-03-08T10:41:15;4.30;;;1.70;;
13487;SDS011;6816;48.506;9.050;2023-03-08T10:44:31;2.07;;;1.40;;
13487;SDS011;6816;48.506;9.050;2023-03-08T10:47:41;1.50;;;1.40;;
13487;SDS011;6816;48.506;9.050;2023-03-08T10:50:57;1.60;;;1.40;;
13487;SDS011;6816;48.506;9.050;2023-03-08T10:54:00;1.43;;;1.20;;
13487;SDS011;6816;48.506;9.050;2023-03-08T10:57:02;1.47;;;0.90;;
13487;SDS011;6816;48.506;9.050;2023-03-08T11:00:04;0.80;;;0.80;;
13487;SDS011;6816;48.506;9.050;2023-03-08T11:03:24;0.80;;;0.80;;
13487;SDS011;6816;48.506;9.050;2023-03-08T11:06:25;0.80;;;0.63;;
13487;SDS011;6816;48.506;9.050;2023-03-08T11:09:28;0.57;;;0.50;;
13487;SDS011;6816;48.506;9.050;2023-03-08T11:12:30;0.60;;;0.50;;
13487;SDS011;6816;48.506;9.050;2023-03-08T11:15:31;0.63;;;0.60;;
13487;SDS011;6816;48.506;9.050;2023-03-08T11:18:42;1.03;;;0.70;;
13487;SDS011;6816;48.506;9.050;2023-03-08T11:39:16;0.90;;;0.47;;
13487;SDS011;6816;48.506;9.050;2023-03-08T11:55:01;0.93;;;0.40;;
13487;SDS011;6816;48.506;9.050;2023-03-08T11:58:31;0.53;;;0.30;;
13487;SDS011;6816;48.506;9.050;2023-03-08T12:01:44;0.60;;;0.30;;
13487;SDS011;6816;48.506;9.050;2023-03-08T12:12:07;1.23;;;0.33;;
13487;SDS011;6816;48.506;9.050;2023-03-08T12:15:20;0.30;;;0.20;;
13487;SDS011;6816;48.506;9.050;2023-03-08T12:18:36;0.47;;;0.20;;
13487;SDS011;6816;48.506;9.050;2023-03-08T12:22:25;0.40;;;0.30;;
13487;SDS011;6816;48.506;9.050;2023-03-08T12:25:16;0.23;;;0.20;;
13487;SDS011;6816;48.506;9.050;2023-03-08T12:31:55;1.00;;;0.30;;
13487;SDS011;6816;48.506;9.050;2023-03-08T12:35:01;2.20;;;0.30;;
13487;SDS011;6816;48.506;9.050;2023-03-08T12:41:22;0.30;;;0.20;;
13487;SDS011;6816;48.506;9.050;2023-03-08T12:44:30;1.07;;;0.73;;
13487;SDS011;6816;48.506;9.050;2023-03-08T12:47:30;0.20;;;0.20;;
13487;SDS011;6816;48.506;9.050;2023-03-08T12:50:37;0.80;;;0.50;;
13487;SDS011;6816;48.506;9.050;2023-03-08T12:56:50;0.40;;;0.40;;
13487;SDS011;6816;48.506;9.050;2023-03-08T13:00:00;0.37;;;0.20;;
13487;SDS011;6816;48.506;9.050;2023-03-08T13:06:32;0.30;;;0.30;;
13487;SDS011;6816;48.506;9.050;2023-03-08T13:09:53;0.60;;;0.30;;
13487;SDS011;6816;48.506;9.050;2023-03-08T13:13:16;0.33;;;0.30;;
13487;SDS011;6816;48.506;9.050;2023-03-08T13:16:36;0.53;;;0.30;;
13487;SDS011;6816;48.506;9.050;2023-03-08T13:19:38;0.40;;;0.20;;
13487;SDS011;6816;48.506;9.050;2023-03-08T13:29:40;0.50;;;0.50;;
13487;SDS011;6816;48.506;9.050;2023-03-08T13:32:43;0.50;;;0.40;;
13487;SDS011;6816;48.506;9.050;2023-03-08T13:35:52;1.97;;;0.80;;
13487;SDS011;6816;48.506;9.050;2023-03-08T13:39:14;0.67;;;0.37;;
13487;SDS011;6816;48.506;9.050;2023-03-08T13:42:20;0.60;;;0.40;;
13487;SDS011;6816;48.506;9.050;2023-03-08T13:45:24;1.17;;;0.20;;
13487;SDS011;6816;48.506;9.050;2023-03-08T13:48:26;0.47;;;0.40;;
13487;SDS011;6816;48.506;9.050;2023-03-08T13:51:33;0.30;;;0.30;;
13487;SDS011;6816;48.506;9.050;2023-03-08T13:54:35;4.15;;;0.38;;
13487;SDS011;6816;48.506;9.050;2023-03-08T13:57:41;1.13;;;0.43;;
13487;SDS011;6816;48.506;9.050;2023-03-08T14:00:42;0.52;;;0.45;;
13487;SDS011;6816;48.506;9.050;2023-03-08T14:03:43;0.73;;;0.30;;
13487;SDS011;6816;48.506;9.050;2023-03-08T14:06:49;0.30;;;0.30;;
13487;SDS011;6816;48.506;9.050;2023-03-08T14:09:52;0.20;;;0.20;;
13487;SDS011;6816;48.506;9.050;2023-03-08T14:12:53;1.27;;;0.50;;
13487;SDS011;6816;48.506;9.050;2023-03-08T14:15:56;0.32;;;0.32;;
13487;SDS011;6816;48.506;9.050;2023-03-08T14:19:06;0.28;;;0.28;;
13487;SDS011;6816;48.506;9.050;2023-03-08T14:22:19;0.40;;;0.30;;
13487;SDS011;6816;48.506;9.050;2023-03-08T14:28:32;0.80;;;0.40;;
13487;SDS011;6816;48.506;9.050;2023-03-08T14:31:38;0.68;;;0.30;;
13487;SDS011;6816;48.506;9.050;2023-03-08T14:34:50;0.30;;;0.23;;
13487;SDS011;6816;48.506;9.050;2023-03-08T14:37:51;0.77;;;0.37;;
13487;SDS011;6816;48.506;9.050;2023-03-08T14:40:55;0.20;;;0.20;;
13487;SDS011;6816;48.506;9.050;2023-03-08T14:43:57;0.40;;;0.30;;
13487;SDS011;6816;48.506;9.050;2023-03-08T14:47:06;0.38;;;0.30;;
13487;SDS011;6816;48.506;9.050;2023-03-08T14:50:27;1.13;;;0.40;;
13487;SDS011;6816;48.506;9.050;2023-03-08T14:53:31;0.30;;;0.30;;
13487;SDS011;6816;48.506;9.050;2023-03-08T14:56:36;0.63;;;0.47;;
13487;SDS011;6816;48.506;9.050;2023-03-08T14:59:40;0.50;;;0.50;;
13487;SDS011;6816;48.506;9.050;2023-03-08T15:02:41;1.37;;;0.53;;
13487;SDS011;6816;48.506;9.050;2023-03-08T15:05:43;0.47;;;0.40;;
13487;SDS011;6816;48.506;9.050;2023-03-08T15:08:45;0.67;;;0.43;;
13487;SDS011;6816;48.506;9.050;2023-03-08T15:11:47;1.47;;;0.40;;
13487;SDS011;6816;48.506;9.050;2023-03-08T15:14:49;1.13;;;0.47;;
13487;SDS011;6816;48.506;9.050;2023-03-08T15:17:50;0.95;;;0.47;;
13487;SDS011;6816;48.506;9.050;2023-03-08T15:20:50;0.90;;;0.40;;
13487;SDS011;6816;48.506;9.050;2023-03-08T15:23:51;0.53;;;0.30;;
13487;SDS011;6816;48.506;9.050;2023-03-08T15:26:52;0.40;;;0.40;;
13487;SDS011;6816;48.506;9.050;2023-03-08T15:29:54;0.30;;;0.30;;
13487;SDS011;6816;48.506;9.050;2023-03-08T15:32:55;1.10;;;0.50;;
13487;SDS011;6816;48.506;9.050;2023-03-08T15:35:56;1.63;;;0.33;;
13487;SDS011;6816;48.506;9.050;2023-03-08T15:38:57;0.40;;;0.30;;
13487;SDS011;6816;48.506;9.050;2023-03-08T15:41:58;0.43;;;0.43;;
13487;SDS011;6816;48.506;9.050;2023-03-08T15:44:59;3.13;;;0.33;;
13487;SDS011;6816;48.506;9.050;2023-03-08T15:48:01;0.70;;;0.40;;
13487;SDS011;6816;48.506;9.050;2023-03-08T15:51:16;2.53;;;0.43;;
13487;SDS011;6816;48.506;9.050;2023-03-08T15:54:18;0.37;;;0.30;;
13487;SDS011;6816;48.506;9.050;2023-03-08T15:57:18;1.90;;;0.40;;
13487;SDS011;6816;48.506;9.050;2023-03-08T16:00:19;0.50;;;0.40;;
13487;SDS011;6816;48.506;9.050;2023-03-08T16:03:21;0.30;;;0.30;;
13487;SDS011;6816;48.506;9.050;2023-03-08T16:06:27;1.40;;;0.30;;
13487;SDS011;6816;48.506;9.050;2023-03-08T16:09:27;0.60;;;0.50;;
13487;SDS011;6816;48.506;9.050;2023-03-08T16:12:28;0.60;;;0.47;;
13487;SDS011;6816;48.506;9.050;2023-03-08T16:15:29;0.30;;;0.30;;
13487;SDS011;6816;48.506;9.050;2023-03-08T16:18:29;0.50;;;0.30;;
13487;SDS011;6816;48.506;9.050;2023-03-08T16:21:31;0.40;;;0.33;;
13487;SDS011;6816;48.506;9.050;2023-03-08T16:24:31;0.77;;;0.40;;
13487;SDS011;6816;48.506;9.050;2023-03-08T16:27:32;1.27;;;0.50;;
13487;SDS011;6816;48.506;9.050;2023-03-08T16:30:33;1.23;;;0.30;;
13487;SDS011;6816;48.506;9.050;2023-03-08T16:33:34;0.77;;;0.57;;
13487;SDS011;6816;48.506;9.050;2023-03-08T16:36:35;0.60;;;0.47;;
13487;SDS011;6816;48.506;9.050;2023-03-08T16:39:36;1.03;;;0.43;;
13487;SDS011;6816;48.506;9.050;2023-03-08T16:42:37;0.73;;;0.57;;
13487;SDS011;6816;48.506;9.050;2023-03-08T16:45:37;0.63;;;0.40;;
13487;SDS011;6816;48.506;9.050;2023-03-08T16:48:50;0.80;;;0.77;;
13487;SDS011;6816;48.506;9.050;2023-03-08T16:51:54;0.60;;;0.50;;
13487;SDS011;6816;48.506;9.050;2023-03-08T16:54:55;0.57;;;0.57;;
13487;SDS011;6816;48.506;9.050;2023-03-08T16:57:56;1.13;;;0.80;;
13487;SDS011;6816;48.506;9.050;2023-03-08T17:00:56;1.73;;;0.70;;
13487;SDS011;6816;48.506;9.050;2023-03-08T17:03:57;0.40;;;0.40;;
13487;SDS011;6816;48.506;9.050;2023-03-08T17:06:58;0.87;;;0.60;;
13487;SDS011;6816;48.506;9.050;2023-03-08T17:09:59;1.00;;;0.57;;
13487;SDS011;6816;48.506;9.050;2023-03-08T17:12:59;0.70;;;0.50;;
13487;SDS011;6816;48.506;9.050;2023-03-08T17:16:00;1.60;;;1.00;;
13487;SDS011;6816;48.506;9.050;2023-03-08T17:19:02;0.70;;;0.60;;
13487;SDS011;6816;48.506;9.050;2023-03-08T17:22:03;0.57;;;0.50;;
13487;SDS011;6816;48.506;9.050;2023-03-08T17:25:04;2.30;;;0.77;;
13487;SDS011;6816;48.506;9.050;2023-03-08T17:28:06;0.90;;;0.40;;
13487;SDS011;6816;48.506;9.050;2023-03-08T17:31:08;1.97;;;0.70;;
13487;SDS011;6816;48.506;9.050;2023-03-08T17:34:10;0.60;;;0.50;;
13487;SDS011;6816;48.506;9.050;2023-03-08T17:37:10;0.97;;;0.50;;
13487;SDS011;6816;48.506;9.050;2023-03-08T17:40:11;0.67;;;0.50;;
13487;SDS011;6816;48.506;9.050;2023-03-08T17:43:13;0.57;;;0.50;;
13487;SDS011;6816;48.506;9.050;2023-03-08T17:46:15;0.50;;;0.50;;
13487;SDS011;6816;48.506;9.050;2023-03-08T17:49:22;0.67;;;0.60;;
13487;SDS011;6816;48.506;9.050;2023-03-08T17:52:24;1.80;;;0.90;;
13487;SDS011;6816;48.506;9.050;2023-03-08T17:55:24;0.70;;;0.60;;
13487;SDS011;6816;48.506;9.050;2023-03-08T17:58:26;0.90;;;0.60;;
13487;SDS011;6816;48.506;9.050;2023-03-08T18:01:28;1.10;;;0.60;;
13487;SDS011;6816;48.506;9.050;2023-03-08T18:04:30;0.97;;;0.77;;
13487;SDS011;6816;48.506;9.050;2023-03-08T18:07:31;1.70;;;0.80;;
13487;SDS011;6816;48.506;9.050;2023-03-08T18:10:32;0.90;;;0.53;;
13487;SDS011;6816;48.506;9.050;2023-03-08T18:13:33;0.60;;;0.60;;
13487;SDS011;6816;48.506;9.050;2023-03-08T18:16:34;0.30;;;0.30;;
13487;SDS011;6816;48.506;9.050;2023-03-08T18:19:35;0.43;;;0.40;;
13487;SDS011;6816;48.506;9.050;2023-03-08T18:22:36;0.80;;;0.43;;
13487;SDS011;6816;48.506;9.050;2023-03-08T18:25:39;1.10;;;0.43;;
13487;SDS011;6816;48.506;9.050;2023-03-08T18:28:40;0.60;;;0.60;;
13487;SDS011;6816;48.506;9.050;2023-03-08T18:31:40;0.63;;;0.57;;
13487;SDS011;6816;48.506;9.050;2023-03-08T18:34:41;0.80;;;0.43;;
13487;SDS011;6816;48.506;9.050;2023-03-08T18:37:42;0.70;;;0.43;;
13487;SDS011;6816;48.506;9.050;2023-03-08T18:40:42;2.23;;;0.50;;
13487;SDS011;6816;48.506;9.050;2023-03-08T18:43:43;0.60;;;0.60;;
13487;SDS011;6816;48.506;9.050;2023-03-08T18:46:44;0.60;;;0.57;;
13487;SDS011;6816;48.506;9.050;2023-03-08T18:49:44;0.93;;;0.40;;
13487;SDS011;6816;48.506;9.050;2023-03-08T18:52:45;0.70;;;0.60;;
13487;SDS011;6816;48.506;9.050;2023-03-08T18:55:53;1.17;;;0.50;;
13487;SDS011;6816;48.506;9.050;2023-03-08T18:58:56;1.43;;;0.70;;
13487;SDS011;6816;48.506;9.050;2023-03-08T19:01:58;0.57;;;0.50;;
13487;SDS011;6816;48.506;9.050;2023-03-08T19:04:59;1.03;;;0.77;;
13487;SDS011;6816;48.506;9.050;2023-03-08T19:08:00;1.33;;;1.00;;
13487;SDS011;6816;48.506;9.050;2023-03-08T19:11:21;2.33;;;0.70;;
13487;SDS011;6816;48.506;9.050;2023-03-08T19:14:23;0.70;;;0.50;;
13487;SDS011;6816;48.506;9.050;2023-03-08T19:17:24;0.50;;;0.40;;
13487;SDS011;6816;48.506;9.050;2023-03-08T19:20:24;0.87;;;0.77;;
13487;SDS011;6816;48.506;9.050;2023-03-08T19:23:25;0.47;;;0.47;;
13487;SDS011;6816;48.506;9.050;2023-03-08T19:26:35;0.60;;;0.50;;
13487;SDS011;6816;48.506;9.050;2023-03-08T19:29:37;0.50;;;0.40;;
13487;SDS011;6816;48.506;9.050;2023-03-08T19:32:37;0.60;;;0.40;;
13487;SDS011;6816;48.506;9.050;2023-03-08T19:35:38;0.40;;;0.40;;
13487;SDS011;6816;48.506;9.050;2023-03-08T19:38:39;0.90;;;0.37;;
13487;SDS011;6816;48.506;9.050;2023-03-08T19:41:40;1.03;;;0.40;;
13487;SDS011;6816;48.506;9.050;2023-03-08T19:44:41;0.40;;;0.40;;
13487;SDS011;6816;48.506;9.050;2023-03-08T19:47:47;0.40;;;0.40;;
13487;SDS011;6816;48.506;9.050;2023-03-08T19:50:47;0.50;;;0.50;;
13487;SDS011;6816;48.506;9.050;2023-03-08T19:53:48;0.50;;;0.40;;
13487;SDS011;6816;48.506;9.050;2023-03-08T19:56:49;0.43;;;0.43;;
13487;SDS011;6816;48.506;9.050;2023-03-08T19:59:50;0.73;;;0.40;;